createdAt,value
2024-04-12T00:01:42.307Z,3.35
2024-04-12T00:04:10.398Z,3.08
2024-04-12T00:06:38.733Z,3.40
2024-04-12T00:09:10.946Z,3.30
2024-04-12T00:11:39.672Z,3.47
2024-04-12T00:14:06.845Z,4.15
2024-04-12T00:16:33.996Z,3.10
2024-04-12T00:19:13.619Z,3.22
2024-04-12T00:21:47.843Z,2.97
2024-04-12T00:24:16.563Z,3.22
2024-04-12T00:26:47.355Z,3.33
2024-04-12T00:29:27.499Z,3.13
2024-04-12T00:31:56.030Z,3.10
2024-04-12T00:34:27.960Z,3.40
2024-04-12T00:37:07.841Z,3.30
2024-04-12T00:39:40.367Z,3.03
2024-04-12T00:42:09.280Z,3.05
2024-04-12T00:44:41.057Z,3.17
2024-04-12T00:47:21.357Z,2.92
2024-04-12T00:49:52.090Z,3.30
2024-04-12T00:52:28.960Z,3.10
2024-04-12T00:55:04.982Z,3.17
2024-04-12T00:57:38.955Z,2.92
2024-04-12T01:00:11.877Z,3.20
2024-04-12T01:02:41.362Z,3.80
2024-04-12T01:05:21.461Z,2.97
2024-04-12T01:07:52.491Z,3.10
2024-04-12T01:10:25.858Z,3.17
2024-04-12T01:12:58.361Z,3.20
2024-04-12T01:15:34.314Z,3.10
2024-04-12T01:18:06.576Z,3.28
2024-04-12T01:20:36.845Z,3.00
2024-04-12T01:23:06.115Z,3.22
2024-04-12T01:25:35.860Z,2.80
2024-04-12T01:28:05.001Z,2.83
2024-04-12T01:30:32.458Z,2.88
2024-04-12T01:33:00.092Z,3.20
2024-04-12T01:35:27.733Z,3.35
2024-04-12T01:37:58.724Z,3.17
2024-04-12T01:40:27.386Z,2.95
2024-04-12T01:42:54.947Z,2.90
2024-04-12T01:45:29.000Z,2.83
2024-04-12T01:47:57.733Z,3.10
2024-04-12T01:50:25.461Z,2.83
2024-04-12T01:52:56.304Z,3.08
2024-04-12T01:55:27.382Z,3.20
2024-04-12T01:57:57.594Z,3.20
2024-04-12T02:00:26.267Z,3.22
2024-04-12T02:02:55.167Z,3.50
2024-04-12T02:05:36.208Z,3.33
2024-04-12T02:08:09.071Z,3.10
2024-04-12T02:10:43.450Z,3.47
2024-04-12T02:13:18.632Z,3.05
2024-04-12T02:15:47.355Z,3.17
2024-04-12T02:18:21.581Z,3.42
2024-04-12T02:20:51.223Z,3.20
2024-04-12T02:23:20.554Z,3.42
2024-04-12T02:25:50.781Z,3.38
2024-04-12T02:28:19.158Z,3.47
2024-04-12T02:30:56.769Z,3.10
2024-04-12T02:33:31.697Z,3.30
2024-04-12T02:36:14.012Z,3.58
2024-04-12T02:38:42.630Z,3.60
2024-04-12T02:41:15.766Z,3.60
2024-04-12T02:46:15.062Z,3.60
2024-04-12T02:48:46.228Z,3.20
2024-04-12T02:51:19.003Z,3.67
2024-04-12T02:53:49.493Z,3.83
2024-04-12T02:56:19.075Z,3.40
2024-04-12T02:58:53.088Z,3.78
2024-04-12T03:01:21.823Z,3.40
2024-04-12T03:03:56.277Z,3.20
2024-04-12T03:06:33.674Z,3.53
2024-04-12T03:09:02.984Z,3.67
2024-04-12T03:11:39.248Z,3.78
2024-04-12T03:14:11.917Z,3.85
2024-04-12T03:16:40.462Z,3.80
2024-04-12T03:19:12.158Z,4.00
2024-04-12T03:21:41.947Z,3.83
2024-04-12T03:24:10.721Z,3.90
2024-04-12T03:26:38.449Z,4.03
2024-04-12T03:29:07.110Z,3.83
2024-04-12T03:31:39.967Z,3.65
2024-04-12T03:34:10.185Z,4.60
2024-04-12T03:36:38.852Z,3.75
2024-04-12T03:39:23.779Z,3.78
2024-04-12T03:42:00.645Z,4.28
2024-04-12T03:44:32.219Z,3.92
2024-04-12T03:47:05.577Z,3.60
2024-04-12T03:49:33.434Z,4.18
2024-04-12T03:52:00.477Z,3.95
2024-04-12T03:54:29.095Z,4.32
2024-04-12T03:57:07.476Z,3.63
2024-04-12T03:59:36.123Z,3.08
2024-04-12T04:02:10.441Z,3.95
2024-04-12T04:04:39.445Z,3.90
2024-04-12T04:07:07.435Z,4.05
2024-04-12T04:09:34.764Z,4.10
2024-04-12T04:12:02.634Z,3.90
2024-04-12T04:14:32.163Z,3.60
2024-04-12T04:17:02.764Z,3.72
2024-04-12T04:19:40.966Z,3.80
2024-04-12T04:22:41.097Z,3.95
2024-04-12T04:25:12.150Z,3.72
2024-04-12T04:27:39.929Z,3.97
2024-04-12T04:30:07.959Z,4.10
2024-04-12T04:32:35.504Z,4.60
2024-04-12T04:35:10.959Z,3.95
2024-04-12T04:37:39.811Z,3.47
2024-04-12T04:40:19.521Z,3.92
2024-04-12T04:42:50.892Z,3.42
2024-04-12T04:45:23.510Z,4.07
2024-04-12T04:47:51.429Z,3.92
2024-04-12T04:50:21.068Z,3.60
2024-04-12T04:52:48.509Z,3.90
2024-04-12T04:55:15.771Z,3.60
2024-04-12T04:57:48.926Z,3.78
2024-04-12T05:00:26.156Z,4.07
2024-04-12T05:02:56.766Z,3.88
2024-04-12T05:05:26.282Z,4.22
2024-04-12T05:07:59.784Z,4.15
2024-04-12T05:10:35.899Z,3.57
2024-04-12T05:13:05.671Z,3.53
2024-04-12T05:15:50.804Z,3.72
2024-04-12T05:18:18.275Z,3.58
2024-04-12T05:20:49.156Z,3.80
2024-04-12T05:23:19.291Z,3.72
2024-04-12T05:25:51.126Z,4.00
2024-04-12T05:28:20.899Z,3.72
2024-04-12T05:30:51.647Z,4.13
2024-04-12T05:33:21.111Z,4.15
2024-04-12T05:35:48.899Z,4.32
2024-04-12T05:38:22.288Z,3.90
2024-04-12T05:40:58.792Z,3.88
2024-04-12T05:43:26.745Z,3.97
2024-04-12T05:45:56.779Z,4.13
2024-04-12T05:48:24.940Z,3.60
2024-04-12T05:50:55.991Z,3.65
2024-04-12T05:53:32.400Z,3.58
2024-04-12T05:56:19.101Z,3.90
2024-04-12T05:58:46.055Z,3.58
2024-04-12T06:01:13.228Z,3.65
2024-04-12T06:03:53.763Z,4.07
2024-04-12T06:06:23.480Z,4.47
2024-04-12T06:08:50.942Z,4.03
2024-04-12T06:11:18.762Z,3.88
2024-04-12T06:13:49.291Z,3.97
2024-04-12T06:16:18.990Z,3.88
2024-04-12T06:18:52.068Z,4.43
2024-04-12T06:21:20.301Z,3.70
2024-04-12T06:23:50.725Z,3.83
2024-04-12T06:26:17.898Z,4.07
2024-04-12T06:28:46.032Z,4.30
2024-04-12T06:31:21.340Z,4.32
2024-04-12T06:33:51.069Z,4.57
2024-04-12T06:36:18.346Z,4.25
2024-04-12T06:38:45.477Z,4.07
2024-04-12T06:41:16.573Z,4.15
2024-04-12T06:43:46.537Z,3.90
2024-04-12T06:46:14.914Z,4.28
2024-04-12T06:48:43.208Z,4.60
2024-04-12T06:51:14.574Z,4.50
2024-04-12T06:53:46.567Z,4.50
2024-04-12T06:56:19.068Z,4.60
2024-04-12T06:58:50.246Z,4.43
2024-04-12T07:01:23.558Z,4.80
2024-04-12T07:06:21.575Z,4.57
2024-04-12T07:08:51.905Z,4.28
2024-04-12T07:11:20.427Z,4.22
2024-04-12T07:13:54.900Z,4.32
2024-04-12T07:16:22.784Z,4.15
2024-04-12T07:18:53.097Z,4.78
2024-04-12T07:21:24.842Z,4.35
2024-04-12T07:23:53.198Z,4.28
2024-04-12T07:26:28.968Z,4.32
2024-04-12T07:29:01.447Z,4.28
2024-04-12T07:31:36.204Z,4.28
2024-04-12T07:34:04.610Z,4.25
2024-04-12T07:36:32.410Z,4.30
2024-04-12T07:39:03.043Z,4.00
2024-04-12T07:41:33.584Z,4.03
2024-04-12T07:44:06.071Z,4.32
2024-04-12T07:46:37.062Z,3.40
2024-04-12T07:49:09.651Z,3.95
2024-04-12T07:51:42.749Z,3.60
2024-04-12T07:54:13.824Z,3.58
2024-04-12T07:57:15.084Z,3.50
2024-04-12T07:59:42.172Z,3.42
2024-04-12T08:02:11.391Z,3.20
2024-04-12T08:04:39.863Z,3.13
2024-04-12T08:07:19.337Z,3.80
2024-04-12T08:09:47.574Z,3.13
2024-04-12T08:12:16.663Z,3.38
2024-04-12T08:14:55.352Z,3.42
2024-04-12T08:17:25.630Z,3.40
2024-04-12T08:19:57.209Z,3.42
2024-04-12T08:22:27.496Z,3.30
2024-04-12T08:24:55.937Z,3.65
2024-04-12T08:27:26.377Z,3.47
2024-04-12T08:29:54.356Z,3.05
2024-04-12T08:32:29.661Z,3.15
2024-04-12T08:34:59.406Z,2.90
2024-04-12T08:37:38.133Z,2.90
2024-04-12T08:40:11.877Z,3.10
2024-04-12T08:42:40.938Z,2.65
2024-04-12T08:45:19.752Z,3.47
2024-04-12T08:48:05.860Z,2.88
2024-04-12T08:50:36.785Z,3.00
2024-04-12T08:53:13.456Z,2.95
2024-04-12T08:55:44.580Z,2.85
2024-04-12T08:58:12.360Z,3.25
2024-04-12T09:00:41.366Z,3.20
2024-04-12T09:03:12.904Z,3.35
2024-04-12T09:05:43.815Z,3.58
2024-04-12T09:08:19.419Z,3.08
2024-04-12T09:10:47.519Z,3.30
2024-04-12T09:13:16.562Z,3.28
2024-04-12T09:15:46.825Z,3.10
2024-04-12T09:18:16.354Z,3.03
2024-04-12T09:20:53.897Z,3.03
2024-04-12T09:23:34.286Z,3.28
2024-04-12T09:26:22.115Z,3.28
2024-04-12T09:28:51.431Z,3.30
2024-04-12T09:31:38.180Z,3.58
2024-04-12T09:34:24.002Z,3.63
2024-04-12T09:36:57.636Z,3.55
2024-04-12T09:39:25.787Z,3.30
2024-04-12T09:41:57.950Z,3.35
2024-04-12T09:44:39.095Z,3.60
2024-04-12T09:47:18.055Z,3.20
2024-04-12T09:50:08.195Z,3.30
2024-04-12T09:52:54.727Z,3.05
2024-04-12T09:55:43.937Z,3.05
2024-04-12T09:58:30.787Z,3.38
2024-04-12T10:01:23.982Z,3.00
2024-04-12T10:04:09.649Z,3.38
2024-04-12T10:07:08.149Z,2.90
2024-04-12T10:09:59.132Z,3.15
2024-04-12T10:12:49.251Z,3.28
2024-04-12T10:15:35.231Z,3.22
2024-04-12T10:18:32.387Z,2.90
2024-04-12T10:21:25.265Z,2.60
2024-04-12T10:24:10.855Z,2.63
2024-04-12T10:27:02.476Z,3.30
2024-04-12T10:29:48.108Z,3.13
2024-04-12T10:32:34.746Z,3.05
2024-04-12T10:35:21.193Z,3.03
2024-04-12T10:37:48.872Z,3.20
2024-04-12T10:40:17.648Z,2.75
2024-04-12T10:42:47.589Z,3.10
2024-04-12T10:45:19.285Z,3.40
2024-04-12T10:47:47.946Z,2.78
2024-04-12T10:50:16.670Z,3.17
2024-04-12T10:52:47.029Z,3.03
2024-04-12T10:55:17.582Z,3.13
2024-04-12T10:57:45.295Z,2.58
2024-04-12T11:00:17.268Z,3.00
2024-04-12T11:03:01.778Z,2.87
2024-04-12T11:05:34.149Z,2.55
2024-04-12T11:08:12.316Z,2.65
2024-04-12T11:10:58.750Z,2.80
2024-04-12T11:13:36.739Z,2.60
2024-04-12T11:16:23.398Z,2.70
2024-04-12T11:19:12.187Z,2.78
2024-04-12T11:21:58.512Z,2.60
2024-04-12T11:24:44.274Z,2.75
2024-04-12T11:27:29.896Z,2.97
2024-04-12T11:30:16.568Z,2.92
2024-04-12T11:32:44.408Z,2.85
2024-04-12T11:35:17.011Z,2.90
2024-04-12T11:37:46.970Z,3.08
2024-04-12T11:40:18.631Z,2.90
2024-04-12T11:42:47.699Z,2.97
2024-04-12T11:45:19.150Z,3.30
2024-04-12T11:47:46.478Z,2.88
2024-04-12T11:50:14.987Z,2.63
2024-04-12T11:52:42.991Z,2.90
2024-04-12T11:55:10.170Z,2.75
2024-04-12T11:57:38.734Z,2.35
2024-04-12T12:00:16.887Z,2.60
2024-04-12T12:02:45.043Z,2.38
2024-04-12T12:05:18.318Z,3.33
2024-04-12T12:07:46.645Z,2.72
2024-04-12T12:10:15.103Z,3.00
2024-04-12T12:12:43.886Z,2.70
2024-04-12T12:15:11.863Z,2.40
2024-04-12T12:17:39.226Z,2.97
2024-04-12T12:20:08.278Z,2.47
2024-04-12T12:22:35.349Z,2.90
2024-04-12T12:25:05.461Z,2.65
2024-04-12T12:27:34.582Z,2.70
2024-04-12T12:30:05.275Z,2.70
2024-04-12T12:32:36.387Z,3.05
2024-04-12T12:35:03.630Z,2.40
2024-04-12T12:37:31.219Z,2.30
2024-04-12T12:40:01.639Z,2.88
2024-04-12T12:42:33.246Z,2.47
2024-04-12T12:45:01.110Z,2.50
2024-04-12T12:47:28.432Z,2.70
2024-04-12T12:49:55.602Z,3.10
2024-04-12T12:52:24.782Z,2.33
2024-04-12T12:54:51.711Z,2.65
2024-04-12T12:57:19.408Z,2.70
2024-04-12T12:59:46.566Z,2.80
2024-04-12T13:02:18.581Z,2.30
2024-04-12T13:04:49.541Z,3.03
2024-04-12T13:07:17.657Z,2.45
2024-04-12T13:09:45.163Z,2.85
2024-04-12T13:12:12.235Z,2.72
2024-04-12T13:14:45.879Z,2.70
2024-04-12T13:17:14.074Z,2.60
2024-04-12T13:19:44.840Z,2.78
2024-04-12T13:22:16.050Z,2.45
2024-04-12T13:24:45.136Z,2.90
2024-04-12T13:27:16.038Z,2.75
2024-04-12T13:29:43.435Z,2.85
2024-04-12T13:32:12.563Z,2.97
2024-04-12T13:34:40.011Z,2.67
2024-04-12T13:37:12.203Z,3.13
2024-04-12T13:39:40.166Z,3.05
2024-04-12T13:42:12.669Z,2.58
2024-04-12T13:44:59.289Z,2.85
2024-04-12T13:47:45.920Z,3.20
2024-04-12T13:50:34.056Z,2.78
2024-04-12T13:53:06.680Z,3.05
2024-04-12T13:55:36.137Z,2.83
2024-04-12T13:58:03.830Z,2.53
2024-04-12T14:00:34.394Z,2.92
2024-04-12T14:03:08.060Z,3.38
2024-04-12T14:05:36.589Z,3.45
2024-04-12T14:08:10.455Z,3.08
2024-04-12T14:10:37.869Z,2.42
2024-04-12T14:13:06.847Z,3.40
2024-04-12T14:15:37.927Z,3.35
2024-04-12T14:18:09.066Z,3.13
2024-04-12T14:20:36.276Z,2.78
2024-04-12T14:23:03.313Z,2.63
2024-04-12T14:25:30.333Z,2.80
2024-04-12T14:27:57.266Z,2.70
2024-04-12T14:30:24.254Z,2.90
2024-04-12T14:32:53.008Z,2.85
2024-04-12T14:35:24.234Z,2.80
2024-04-12T14:37:52.002Z,2.85
2024-04-12T14:40:23.084Z,2.53
2024-04-12T14:42:54.102Z,2.33
2024-04-12T14:45:22.990Z,2.42
2024-04-12T14:47:58.901Z,2.65
2024-04-12T14:50:34.048Z,2.20
2024-04-12T14:53:04.513Z,2.80
2024-04-12T14:55:32.159Z,2.50
2024-04-12T14:57:59.380Z,2.38
2024-04-12T15:00:27.069Z,1.88
2024-04-12T15:03:13.518Z,2.65
2024-04-12T15:05:59.349Z,2.53
2024-04-12T15:08:45.102Z,2.75
2024-04-12T15:11:30.605Z,2.63
2024-04-12T15:14:16.292Z,2.30
2024-04-12T15:17:01.775Z,2.70
2024-04-12T15:19:47.289Z,2.55
2024-04-12T15:22:32.747Z,2.65
2024-04-12T15:25:18.078Z,2.60
2024-04-12T15:28:03.494Z,2.33
2024-04-12T15:30:48.912Z,2.63
2024-04-12T15:33:34.721Z,2.55
2024-04-12T15:36:20.674Z,2.42
2024-04-12T15:39:06.317Z,2.33
2024-04-12T15:41:51.935Z,2.90
2024-04-12T15:44:37.390Z,2.63
2024-04-12T15:47:23.828Z,2.70
2024-04-12T15:50:02.292Z,2.65
2024-04-12T15:52:30.740Z,2.80
2024-04-12T15:55:10.434Z,2.60
2024-04-12T15:57:56.049Z,2.70
2024-04-12T16:00:41.469Z,2.58
2024-04-12T16:03:27.070Z,2.50
2024-04-12T16:06:12.602Z,3.00
2024-04-12T16:08:58.271Z,2.58
2024-04-12T16:11:25.372Z,2.35
2024-04-12T16:13:52.345Z,2.47
2024-04-12T16:16:22.365Z,2.75
2024-04-12T16:18:50.142Z,2.42
2024-04-12T16:21:17.330Z,2.70
2024-04-12T16:23:44.603Z,2.60
2024-04-12T16:26:12.395Z,2.65
2024-04-12T16:28:39.346Z,2.85
2024-04-12T16:31:07.459Z,2.85
2024-04-12T16:33:35.582Z,2.70
2024-04-12T16:36:03.183Z,2.80
2024-04-12T16:38:30.224Z,2.95
2024-04-12T16:40:57.427Z,2.80
2024-04-12T16:43:24.438Z,3.00
2024-04-12T16:45:51.450Z,3.13
2024-04-12T16:48:18.561Z,2.85
2024-04-12T16:50:45.680Z,2.60
2024-04-12T16:53:12.747Z,2.72
2024-04-12T16:55:40.969Z,2.78
2024-04-12T16:58:10.416Z,2.45
2024-04-12T17:00:37.898Z,3.30
2024-04-12T17:03:05.524Z,3.20
2024-04-12T17:05:33.081Z,3.00
2024-04-12T17:08:00.063Z,3.00
2024-04-12T17:10:27.631Z,2.95
2024-04-12T17:12:54.663Z,3.10
2024-04-12T17:15:22.222Z,3.00
2024-04-12T17:17:49.510Z,3.33
2024-04-12T17:20:16.697Z,3.20
2024-04-12T17:22:47.209Z,3.08
2024-04-12T17:25:16.306Z,3.35
2024-04-12T17:27:44.917Z,3.10
2024-04-12T17:30:13.239Z,2.90
2024-04-12T17:32:40.422Z,3.42
2024-04-12T17:35:11.436Z,3.05
2024-04-12T17:37:39.415Z,3.35
2024-04-12T17:40:07.709Z,3.50
2024-04-12T17:42:34.870Z,2.83
2024-04-12T17:45:02.021Z,3.13
2024-04-12T17:47:29.001Z,3.50
2024-04-12T17:49:56.714Z,3.72
2024-04-12T17:52:29.228Z,5.00
2024-04-12T17:54:56.786Z,3.70
2024-04-12T17:57:24.694Z,3.17
2024-04-12T17:59:54.718Z,3.30
2024-04-12T18:02:23.627Z,3.70
2024-04-12T18:04:50.790Z,3.78
2024-04-12T18:07:17.806Z,4.43
2024-04-12T18:09:45.981Z,4.10
2024-04-12T18:12:16.028Z,4.40
2024-04-12T18:14:46.127Z,4.40
2024-04-12T18:17:13.160Z,4.28
2024-04-12T18:19:40.284Z,3.80
2024-04-12T18:22:08.531Z,4.15
2024-04-12T18:24:35.590Z,3.63
2024-04-12T18:27:03.025Z,3.90
2024-04-12T18:29:30.039Z,4.18
2024-04-12T18:31:59.731Z,3.65
2024-04-12T18:34:28.108Z,3.80
2024-04-12T18:37:16.076Z,4.00
2024-04-12T18:40:01.623Z,3.40
2024-04-12T18:42:47.203Z,3.60
2024-04-12T18:45:16.593Z,4.00
2024-04-12T18:47:48.489Z,3.63
2024-04-12T18:50:18.685Z,3.75
2024-04-12T18:52:46.857Z,3.70
2024-04-12T18:55:14.335Z,3.90
2024-04-12T18:57:42.207Z,3.63
2024-04-12T19:00:09.531Z,4.00
2024-04-12T19:02:38.872Z,4.20
2024-04-12T19:05:11.435Z,3.67
2024-04-12T19:07:38.578Z,4.10
2024-04-12T19:10:06.317Z,3.70
2024-04-12T19:12:35.146Z,4.13
2024-04-12T19:15:06.296Z,3.50
2024-04-12T19:17:33.372Z,3.72
2024-04-12T19:20:00.370Z,4.25
2024-04-12T19:22:28.601Z,3.88
2024-04-12T19:24:55.611Z,3.90
2024-04-12T19:27:22.799Z,3.97
2024-04-12T19:29:49.870Z,4.13
2024-04-12T19:32:17.492Z,4.13
2024-04-12T19:34:44.660Z,3.70
2024-04-12T19:37:11.720Z,3.90
2024-04-12T19:39:38.894Z,3.83
2024-04-12T19:42:08.313Z,4.05
2024-04-12T19:44:38.332Z,3.67
2024-04-12T19:47:06.762Z,3.90
2024-04-12T19:49:36.851Z,3.92
2024-04-12T19:52:04.555Z,4.05
2024-04-12T19:54:31.795Z,4.50
2024-04-12T19:56:59.016Z,4.00
2024-04-12T19:59:26.469Z,3.72
2024-04-12T20:01:53.475Z,4.13
2024-04-12T20:04:20.952Z,3.97
2024-04-12T20:06:49.359Z,4.63
2024-04-12T20:09:16.483Z,4.43
2024-04-12T20:11:43.487Z,4.05
2024-04-12T20:14:10.471Z,4.28
2024-04-12T20:16:37.805Z,4.53
2024-04-12T20:19:05.478Z,4.35
2024-04-12T20:21:33.102Z,4.22
2024-04-12T20:24:00.184Z,4.30
2024-04-12T20:26:27.169Z,4.35
2024-04-12T20:28:55.722Z,4.30
2024-04-12T20:31:24.227Z,5.10
2024-04-12T20:34:06.048Z,4.95
2024-04-12T20:36:44.312Z,4.72
2024-04-12T20:39:19.136Z,5.68
2024-04-12T20:41:56.415Z,5.13
2024-04-12T20:44:27.028Z,5.07
2024-04-12T20:46:55.784Z,5.07
2024-04-12T20:49:24.269Z,5.25
2024-04-12T20:51:54.602Z,4.50
2024-04-12T20:54:21.775Z,4.80
2024-04-12T20:56:50.585Z,4.85
2024-04-12T20:59:20.653Z,4.22
2024-04-12T21:01:52.384Z,4.90
2024-04-12T21:04:20.789Z,4.75
2024-04-12T21:06:49.211Z,4.55
2024-04-12T21:09:18.388Z,4.65
2024-04-12T21:11:48.682Z,4.22
2024-04-12T21:14:16.536Z,4.72
2024-04-12T21:16:44.869Z,4.80
2024-04-12T21:19:13.284Z,4.97
2024-04-12T21:21:40.492Z,4.80
2024-04-12T21:24:07.764Z,4.07
2024-04-12T21:26:35.017Z,4.45
2024-04-12T21:29:02.656Z,4.93
2024-04-12T21:31:29.617Z,5.03
2024-04-12T21:33:56.653Z,4.80
2024-04-12T21:36:25.912Z,4.57
2024-04-12T21:38:59.465Z,4.90
2024-04-12T21:41:26.799Z,4.53
2024-04-12T21:43:54.156Z,5.00
2024-04-12T21:46:25.646Z,4.47
2024-04-12T21:48:54.885Z,5.00
2024-04-12T21:51:25.072Z,4.97
2024-04-12T21:53:53.545Z,4.47
2024-04-12T21:56:23.292Z,4.53
2024-04-12T21:58:51.143Z,4.45
2024-04-12T22:01:19.377Z,4.55
2024-04-12T22:03:48.100Z,4.50
2024-04-12T22:06:15.808Z,4.55
2024-04-12T22:08:43.698Z,4.93
2024-04-12T22:11:11.229Z,4.63
2024-04-12T22:13:39.107Z,4.75
2024-04-12T22:16:13.933Z,4.40
2024-04-12T22:18:42.013Z,4.20
2024-04-12T22:21:15.121Z,4.45
2024-04-12T22:23:44.857Z,4.57
2024-04-12T22:26:17.065Z,4.45
2024-04-12T22:28:46.171Z,4.85
2024-04-12T22:31:21.107Z,4.53
2024-04-12T22:33:51.271Z,4.50
2024-04-12T22:36:21.841Z,4.78
2024-04-12T22:38:49.824Z,4.75
2024-04-12T22:41:17.765Z,4.65
2024-04-12T22:43:45.717Z,4.60
2024-04-12T22:46:12.903Z,4.80
2024-04-12T22:48:41.564Z,4.90
2024-04-12T22:51:10.379Z,4.63
2024-04-12T22:53:37.435Z,4.70
2024-04-12T22:56:04.877Z,4.45
2024-04-12T22:58:33.103Z,4.90
2024-04-12T23:01:00.204Z,4.60
2024-04-12T23:03:27.244Z,4.60
2024-04-12T23:05:54.866Z,4.47
2024-04-12T23:08:21.875Z,4.60
2024-04-12T23:10:48.917Z,4.32
2024-04-12T23:13:15.956Z,4.35
2024-04-12T23:15:42.988Z,4.35
2024-04-12T23:18:13.733Z,4.43
2024-04-12T23:20:41.859Z,3.72
2024-04-12T23:23:09.812Z,4.53
2024-04-12T23:25:37.032Z,4.68
2024-04-12T23:28:04.292Z,4.70
2024-04-12T23:30:31.336Z,4.25
2024-04-12T23:32:58.421Z,4.18
2024-04-12T23:35:25.552Z,4.45
2024-04-12T23:37:52.525Z,4.30
2024-04-12T23:40:19.504Z,4.03
2024-04-12T23:42:46.519Z,4.07
2024-04-12T23:45:13.561Z,4.20
2024-04-12T23:47:40.742Z,3.70
2024-04-12T23:50:08.144Z,4.38
2024-04-12T23:52:35.161Z,3.83
2024-04-12T23:55:02.175Z,4.32
2024-04-12T23:57:29.340Z,4.60
2024-04-12T23:59:56.379Z,3.80
